sensor_id;sensor_type;location;lat;lon;timestamp;P1;durP1;ratioP1;P2;durP2;ratioP2
17953;SDS011;9102;53.548;9.926;2023-10-31T00:01:31;27.77;;;13.57;;
17953;SDS011;9102;53.548;9.926;2023-10-31T00:03:58;30.92;;;14.45;;
17953;SDS011;9102;53.548;9.926;2023-10-31T00:06:27;28.73;;;13.02;;
17953;SDS011;9102;53.548;9.926;2023-10-31T00:08:53;29.40;;;12.95;;
17953;SDS011;9102;53.548;9.926;2023-10-31T00:11:21;25.13;;;12.93;;
17953;SDS011;9102;53.548;9.926;2023-10-31T00:13:48;26.85;;;12.30;;
17953;SDS011;9102;53.548;9.926;2023-10-31T00:16:14;26.80;;;12.43;;
17953;SDS011;9102;53.548;9.926;2023-10-31T00:18:41;30.08;;;13.30;;
17953;SDS011;9102;53.548;9.926;2023-10-31T00:21:08;21.73;;;10.93;;
17953;SDS011;9102;53.548;9.926;2023-10-31T00:23:43;33.55;;;13.20;;
17953;SDS011;9102;53.548;9.926;2023-10-31T00:26:10;25.80;;;12.65;;
17953;SDS011;9102;53.548;9.926;2023-10-31T00:28:37;29.63;;;12.82;;
17953;SDS011;9102;53.548;9.926;2023-10-31T00:31:03;34.15;;;12.77;;
17953;SDS011;9102;53.548;9.926;2023-10-31T00:33:32;26.15;;;13.23;;
17953;SDS011;9102;53.548;9.926;2023-10-31T00:36:00;23.85;;;13.52;;
17953;SDS011;9102;53.548;9.926;2023-10-31T00:38:27;33.88;;;14.20;;
17953;SDS011;9102;53.548;9.926;2023-10-31T00:40:56;33.85;;;15.48;;
17953;SDS011;9102;53.548;9.926;2023-10-31T00:43:22;28.35;;;15.25;;
17953;SDS011;9102;53.548;9.926;2023-10-31T00:45:49;29.45;;;13.80;;
17953;SDS011;9102;53.548;9.926;2023-10-31T00:48:16;29.95;;;15.25;;
17953;SDS011;9102;53.548;9.926;2023-10-31T00:50:44;31.60;;;16.05;;
17953;SDS011;9102;53.548;9.926;2023-10-31T00:53:11;35.65;;;15.48;;
17953;SDS011;9102;53.548;9.926;2023-10-31T00:55:39;29.63;;;17.15;;
17953;SDS011;9102;53.548;9.926;2023-10-31T00:58:07;33.35;;;17.05;;
17953;SDS011;9102;53.548;9.926;2023-10-31T01:00:34;30.92;;;15.73;;
17953;SDS011;9102;53.548;9.926;2023-10-31T01:03:02;34.85;;;16.60;;
17953;SDS011;9102;53.548;9.926;2023-10-31T01:05:29;30.98;;;15.95;;
17953;SDS011;9102;53.548;9.926;2023-10-31T01:07:56;40.90;;;16.10;;
17953;SDS011;9102;53.548;9.926;2023-10-31T01:10:22;34.05;;;17.98;;
17953;SDS011;9102;53.548;9.926;2023-10-31T01:12:49;36.53;;;16.58;;
17953;SDS011;9102;53.548;9.926;2023-10-31T01:15:17;36.97;;;16.77;;
17953;SDS011;9102;53.548;9.926;2023-10-31T01:17:44;32.42;;;15.20;;
17953;SDS011;9102;53.548;9.926;2023-10-31T01:20:11;30.35;;;15.43;;
17953;SDS011;9102;53.548;9.926;2023-10-31T01:22:38;31.67;;;16.50;;
17953;SDS011;9102;53.548;9.926;2023-10-31T01:25:05;34.17;;;16.02;;
17953;SDS011;9102;53.548;9.926;2023-10-31T01:27:32;28.63;;;14.88;;
17953;SDS011;9102;53.548;9.926;2023-10-31T01:29:59;30.83;;;15.73;;
17953;SDS011;9102;53.548;9.926;2023-10-31T01:32:27;36.65;;;16.17;;
17953;SDS011;9102;53.548;9.926;2023-10-31T01:34:54;30.75;;;14.25;;
17953;SDS011;9102;53.548;9.926;2023-10-31T01:37:21;33.90;;;16.45;;
17953;SDS011;9102;53.548;9.926;2023-10-31T01:39:47;29.13;;;14.43;;
17953;SDS011;9102;53.548;9.926;2023-10-31T01:42:14;31.13;;;14.63;;
17953;SDS011;9102;53.548;9.926;2023-10-31T01:44:41;21.67;;;12.40;;
17953;SDS011;9102;53.548;9.926;2023-10-31T01:47:08;27.95;;;15.30;;
17953;SDS011;9102;53.548;9.926;2023-10-31T01:49:36;22.98;;;13.40;;
17953;SDS011;9102;53.548;9.926;2023-10-31T01:52:04;33.83;;;13.43;;
17953;SDS011;9102;53.548;9.926;2023-10-31T01:54:32;30.70;;;12.63;;
17953;SDS011;9102;53.548;9.926;2023-10-31T01:56:59;29.45;;;13.10;;
17953;SDS011;9102;53.548;9.926;2023-10-31T01:59:27;33.13;;;13.18;;
17953;SDS011;9102;53.548;9.926;2023-10-31T02:01:54;32.17;;;13.38;;
17953;SDS011;9102;53.548;9.926;2023-10-31T02:04:22;22.85;;;11.57;;
17953;SDS011;9102;53.548;9.926;2023-10-31T02:06:51;25.42;;;12.60;;
17953;SDS011;9102;53.548;9.926;2023-10-31T02:09:18;23.63;;;11.93;;
17953;SDS011;9102;53.548;9.926;2023-10-31T02:11:45;29.85;;;13.13;;
17953;SDS011;9102;53.548;9.926;2023-10-31T02:14:12;29.45;;;12.88;;
17953;SDS011;9102;53.548;9.926;2023-10-31T02:16:38;28.17;;;12.77;;
17953;SDS011;9102;53.548;9.926;2023-10-31T02:19:05;33.10;;;13.15;;
17953;SDS011;9102;53.548;9.926;2023-10-31T02:21:33;21.58;;;11.93;;
17953;SDS011;9102;53.548;9.926;2023-10-31T02:24:02;30.08;;;12.35;;
17953;SDS011;9102;53.548;9.926;2023-10-31T02:26:29;28.13;;;12.05;;
17953;SDS011;9102;53.548;9.926;2023-10-31T02:28:56;34.65;;;12.63;;
17953;SDS011;9102;53.548;9.926;2023-10-31T02:31:23;32.40;;;12.73;;
17953;SDS011;9102;53.548;9.926;2023-10-31T02:33:50;24.10;;;12.27;;
17953;SDS011;9102;53.548;9.926;2023-10-31T02:36:17;20.95;;;10.20;;
17953;SDS011;9102;53.548;9.926;2023-10-31T02:38:44;25.02;;;11.82;;
17953;SDS011;9102;53.548;9.926;2023-10-31T02:41:13;26.15;;;12.57;;
17953;SDS011;9102;53.548;9.926;2023-10-31T02:43:40;27.98;;;12.57;;
17953;SDS011;9102;53.548;9.926;2023-10-31T02:46:08;30.15;;;11.80;;
17953;SDS011;9102;53.548;9.926;2023-10-31T02:48:37;25.27;;;12.43;;
17953;SDS011;9102;53.548;9.926;2023-10-31T02:51:05;26.35;;;11.75;;
17953;SDS011;9102;53.548;9.926;2023-10-31T02:53:32;22.00;;;10.45;;
17953;SDS011;9102;53.548;9.926;2023-10-31T02:55:59;28.73;;;12.55;;
17953;SDS011;9102;53.548;9.926;2023-10-31T02:58:27;29.17;;;12.52;;
17953;SDS011;9102;53.548;9.926;2023-10-31T03:00:54;28.17;;;11.93;;
17953;SDS011;9102;53.548;9.926;2023-10-31T03:03:21;26.85;;;12.43;;
17953;SDS011;9102;53.548;9.926;2023-10-31T03:05:48;23.95;;;12.25;;
17953;SDS011;9102;53.548;9.926;2023-10-31T03:08:14;24.02;;;11.48;;
17953;SDS011;9102;53.548;9.926;2023-10-31T03:10:45;29.52;;;12.77;;
17953;SDS011;9102;53.548;9.926;2023-10-31T03:13:15;29.85;;;12.15;;
17953;SDS011;9102;53.548;9.926;2023-10-31T03:15:43;30.33;;;12.18;;
17953;SDS011;9102;53.548;9.926;2023-10-31T03:18:10;29.75;;;12.27;;
17953;SDS011;9102;53.548;9.926;2023-10-31T03:20:37;27.77;;;12.75;;
17953;SDS011;9102;53.548;9.926;2023-10-31T03:23:03;21.67;;;11.20;;
17953;SDS011;9102;53.548;9.926;2023-10-31T03:25:30;29.63;;;12.10;;
17953;SDS011;9102;53.548;9.926;2023-10-31T03:27:57;28.83;;;11.85;;
17953;SDS011;9102;53.548;9.926;2023-10-31T03:30:24;27.58;;;12.30;;
17953;SDS011;9102;53.548;9.926;2023-10-31T03:32:52;35.92;;;13.07;;
17953;SDS011;9102;53.548;9.926;2023-10-31T03:35:19;24.75;;;11.10;;
17953;SDS011;9102;53.548;9.926;2023-10-31T03:37:46;25.88;;;11.38;;
17953;SDS011;9102;53.548;9.926;2023-10-31T03:40:12;21.80;;;11.95;;
17953;SDS011;9102;53.548;9.926;2023-10-31T03:42:39;23.77;;;11.05;;
17953;SDS011;9102;53.548;9.926;2023-10-31T03:45:07;27.67;;;12.13;;
17953;SDS011;9102;53.548;9.926;2023-10-31T03:47:34;27.58;;;11.75;;
17953;SDS011;9102;53.548;9.926;2023-10-31T03:50:02;27.20;;;12.02;;
17953;SDS011;9102;53.548;9.926;2023-10-31T03:52:29;20.40;;;9.95;;
17953;SDS011;9102;53.548;9.926;2023-10-31T03:54:56;26.08;;;12.02;;
17953;SDS011;9102;53.548;9.926;2023-10-31T03:57:23;26.73;;;10.70;;
17953;SDS011;9102;53.548;9.926;2023-10-31T03:59:50;24.02;;;11.32;;
17953;SDS011;9102;53.548;9.926;2023-10-31T04:02:16;24.50;;;11.45;;
17953;SDS011;9102;53.548;9.926;2023-10-31T04:04:43;23.92;;;11.80;;
17953;SDS011;9102;53.548;9.926;2023-10-31T04:07:11;25.33;;;11.75;;
17953;SDS011;9102;53.548;9.926;2023-10-31T04:09:38;21.85;;;11.40;;
17953;SDS011;9102;53.548;9.926;2023-10-31T04:12:05;25.08;;;12.05;;
17953;SDS011;9102;53.548;9.926;2023-10-31T04:14:32;29.40;;;11.27;;
17953;SDS011;9102;53.548;9.926;2023-10-31T04:17:00;21.63;;;11.30;;
17953;SDS011;9102;53.548;9.926;2023-10-31T04:19:27;16.48;;;10.30;;
17953;SDS011;9102;53.548;9.926;2023-10-31T04:21:53;22.80;;;11.05;;
17953;SDS011;9102;53.548;9.926;2023-10-31T04:24:21;26.40;;;11.40;;
17953;SDS011;9102;53.548;9.926;2023-10-31T04:26:48;18.65;;;9.57;;
17953;SDS011;9102;53.548;9.926;2023-10-31T04:29:15;21.73;;;10.45;;
17953;SDS011;9102;53.548;9.926;2023-10-31T04:31:42;20.35;;;10.52;;
17953;SDS011;9102;53.548;9.926;2023-10-31T04:34:09;18.40;;;10.43;;
17953;SDS011;9102;53.548;9.926;2023-10-31T04:36:36;21.42;;;11.13;;
17953;SDS011;9102;53.548;9.926;2023-10-31T04:39:03;19.85;;;10.80;;
17953;SDS011;9102;53.548;9.926;2023-10-31T04:41:31;31.42;;;12.20;;
17953;SDS011;9102;53.548;9.926;2023-10-31T04:43:58;22.80;;;10.77;;
17953;SDS011;9102;53.548;9.926;2023-10-31T04:46:25;24.05;;;11.68;;
17953;SDS011;9102;53.548;9.926;2023-10-31T04:48:52;31.83;;;12.52;;
17953;SDS011;9102;53.548;9.926;2023-10-31T04:51:19;20.88;;;11.50;;
17953;SDS011;9102;53.548;9.926;2023-10-31T04:53:46;24.88;;;13.27;;
17953;SDS011;9102;53.548;9.926;2023-10-31T04:56:14;21.30;;;13.10;;
17953;SDS011;9102;53.548;9.926;2023-10-31T04:58:43;25.52;;;13.30;;
17953;SDS011;9102;53.548;9.926;2023-10-31T05:01:11;30.20;;;15.02;;
17953;SDS011;9102;53.548;9.926;2023-10-31T05:03:38;27.33;;;13.77;;
17953;SDS011;9102;53.548;9.926;2023-10-31T05:06:05;31.10;;;13.75;;
17953;SDS011;9102;53.548;9.926;2023-10-31T05:08:32;23.00;;;12.45;;
17953;SDS011;9102;53.548;9.926;2023-10-31T05:10:59;28.45;;;13.05;;
17953;SDS011;9102;53.548;9.926;2023-10-31T05:13:26;24.20;;;13.15;;
17953;SDS011;9102;53.548;9.926;2023-10-31T05:15:54;25.83;;;14.18;;
17953;SDS011;9102;53.548;9.926;2023-10-31T05:18:21;35.22;;;13.02;;
17953;SDS011;9102;53.548;9.926;2023-10-31T05:20:49;25.45;;;12.90;;
17953;SDS011;9102;53.548;9.926;2023-10-31T05:23:14;24.70;;;12.65;;
17953;SDS011;9102;53.548;9.926;2023-10-31T05:25:41;37.45;;;14.27;;
17953;SDS011;9102;53.548;9.926;2023-10-31T05:28:08;20.98;;;11.45;;
17953;SDS011;9102;53.548;9.926;2023-10-31T05:30:35;32.03;;;13.88;;
17953;SDS011;9102;53.548;9.926;2023-10-31T05:33:03;24.88;;;13.07;;
17953;SDS011;9102;53.548;9.926;2023-10-31T05:35:30;24.00;;;12.02;;
17953;SDS011;9102;53.548;9.926;2023-10-31T05:37:57;37.83;;;13.30;;
17953;SDS011;9102;53.548;9.926;2023-10-31T05:40:23;44.95;;;14.63;;
17953;SDS011;9102;53.548;9.926;2023-10-31T05:42:52;29.38;;;13.90;;
17953;SDS011;9102;53.548;9.926;2023-10-31T05:45:19;30.35;;;12.80;;
17953;SDS011;9102;53.548;9.926;2023-10-31T05:47:46;24.45;;;12.93;;
17953;SDS011;9102;53.548;9.926;2023-10-31T05:50:15;26.25;;;13.05;;
17953;SDS011;9102;53.548;9.926;2023-10-31T05:52:41;31.90;;;12.63;;
17953;SDS011;9102;53.548;9.926;2023-10-31T05:55:08;21.98;;;11.30;;
17953;SDS011;9102;53.548;9.926;2023-10-31T05:57:35;36.63;;;14.13;;
17953;SDS011;9102;53.548;9.926;2023-10-31T06:00:02;31.70;;;14.20;;
17953;SDS011;9102;53.548;9.926;2023-10-31T06:02:29;31.40;;;14.77;;
17953;SDS011;9102;53.548;9.926;2023-10-31T06:04:56;29.80;;;13.05;;
17953;SDS011;9102;53.548;9.926;2023-10-31T06:07:23;29.83;;;13.80;;
17953;SDS011;9102;53.548;9.926;2023-10-31T06:09:50;44.25;;;14.05;;
17953;SDS011;9102;53.548;9.926;2023-10-31T06:12:17;29.45;;;13.80;;
17953;SDS011;9102;53.548;9.926;2023-10-31T06:14:43;44.53;;;15.98;;
17953;SDS011;9102;53.548;9.926;2023-10-31T06:17:10;34.55;;;14.68;;
17953;SDS011;9102;53.548;9.926;2023-10-31T06:19:37;41.40;;;14.75;;
17953;SDS011;9102;53.548;9.926;2023-10-31T06:22:10;34.17;;;14.10;;
17953;SDS011;9102;53.548;9.926;2023-10-31T06:24:38;41.30;;;15.35;;
17953;SDS011;9102;53.548;9.926;2023-10-31T06:27:05;43.92;;;15.98;;
17953;SDS011;9102;53.548;9.926;2023-10-31T06:29:32;40.67;;;15.50;;
17953;SDS011;9102;53.548;9.926;2023-10-31T06:31:59;52.75;;;16.40;;
17953;SDS011;9102;53.548;9.926;2023-10-31T06:34:26;30.73;;;13.38;;
17953;SDS011;9102;53.548;9.926;2023-10-31T06:36:53;60.75;;;17.13;;
17953;SDS011;9102;53.548;9.926;2023-10-31T06:39:19;40.92;;;15.02;;
17953;SDS011;9102;53.548;9.926;2023-10-31T06:41:48;28.95;;;13.57;;
17953;SDS011;9102;53.548;9.926;2023-10-31T06:44:15;46.60;;;15.55;;
17953;SDS011;9102;53.548;9.926;2023-10-31T06:46:42;35.92;;;14.35;;
17953;SDS011;9102;53.548;9.926;2023-10-31T06:49:09;38.15;;;14.45;;
17953;SDS011;9102;53.548;9.926;2023-10-31T06:51:36;33.72;;;14.10;;
17953;SDS011;9102;53.548;9.926;2023-10-31T06:54:03;31.27;;;13.50;;
17953;SDS011;9102;53.548;9.926;2023-10-31T06:56:30;33.72;;;13.07;;
17953;SDS011;9102;53.548;9.926;2023-10-31T06:58:58;27.95;;;11.98;;
17953;SDS011;9102;53.548;9.926;2023-10-31T07:01:25;33.65;;;12.70;;
17953;SDS011;9102;53.548;9.926;2023-10-31T07:03:52;23.92;;;11.20;;
17953;SDS011;9102;53.548;9.926;2023-10-31T07:06:19;20.55;;;8.48;;
17953;SDS011;9102;53.548;9.926;2023-10-31T07:08:46;16.92;;;7.65;;
17953;SDS011;9102;53.548;9.926;2023-10-31T07:11:13;17.65;;;8.32;;
17953;SDS011;9102;53.548;9.926;2023-10-31T07:13:39;15.57;;;8.15;;
17953;SDS011;9102;53.548;9.926;2023-10-31T07:16:08;14.10;;;7.45;;
17953;SDS011;9102;53.548;9.926;2023-10-31T07:18:35;16.20;;;8.30;;
17953;SDS011;9102;53.548;9.926;2023-10-31T07:21:01;17.15;;;8.20;;
17953;SDS011;9102;53.548;9.926;2023-10-31T07:23:29;22.50;;;9.93;;
17953;SDS011;9102;53.548;9.926;2023-10-31T07:25:56;22.85;;;10.07;;
17953;SDS011;9102;53.548;9.926;2023-10-31T07:28:22;24.60;;;12.05;;
17953;SDS011;9102;53.548;9.926;2023-10-31T07:30:49;31.05;;;14.65;;
17953;SDS011;9102;53.548;9.926;2023-10-31T07:33:18;33.70;;;16.73;;
17953;SDS011;9102;53.548;9.926;2023-10-31T07:35:45;38.45;;;17.38;;
17953;SDS011;9102;53.548;9.926;2023-10-31T07:38:11;36.92;;;18.38;;
17953;SDS011;9102;53.548;9.926;2023-10-31T07:40:39;30.08;;;15.98;;
17953;SDS011;9102;53.548;9.926;2023-10-31T07:43:06;34.75;;;15.18;;
17953;SDS011;9102;53.548;9.926;2023-10-31T07:45:33;29.70;;;14.73;;
17953;SDS011;9102;53.548;9.926;2023-10-31T07:48:00;28.20;;;12.85;;
17953;SDS011;9102;53.548;9.926;2023-10-31T07:50:29;20.38;;;10.60;;
17953;SDS011;9102;53.548;9.926;2023-10-31T07:52:55;15.38;;;8.45;;
17953;SDS011;9102;53.548;9.926;2023-10-31T07:55:22;11.70;;;7.25;;
17953;SDS011;9102;53.548;9.926;2023-10-31T07:57:49;9.13;;;4.78;;
17953;SDS011;9102;53.548;9.926;2023-10-31T08:00:18;5.00;;;2.90;;
17953;SDS011;9102;53.548;9.926;2023-10-31T08:02:45;2.85;;;1.58;;
17953;SDS011;9102;53.548;9.926;2023-10-31T08:05:12;5.35;;;1.40;;
17953;SDS011;9102;53.548;9.926;2023-10-31T08:07:42;1.85;;;1.20;;
17953;SDS011;9102;53.548;9.926;2023-10-31T08:10:09;2.25;;;1.23;;
17953;SDS011;9102;53.548;9.926;2023-10-31T08:12:36;3.42;;;0.80;;
17953;SDS011;9102;53.548;9.926;2023-10-31T08:15:03;2.15;;;0.90;;
17953;SDS011;9102;53.548;9.926;2023-10-31T08:17:31;2.50;;;1.27;;
17953;SDS011;9102;53.548;9.926;2023-10-31T08:19:57;1.05;;;0.60;;
17953;SDS011;9102;53.548;9.926;2023-10-31T08:22:24;0.50;;;0.40;;
17953;SDS011;9102;53.548;9.926;2023-10-31T08:24:52;0.95;;;0.40;;
17953;SDS011;9102;53.548;9.926;2023-10-31T08:27:19;1.25;;;0.50;;
17953;SDS011;9102;53.548;9.926;2023-10-31T08:29:46;0.88;;;0.45;;
17953;SDS011;9102;53.548;9.926;2023-10-31T08:32:13;0.85;;;0.50;;
17953;SDS011;9102;53.548;9.926;2023-10-31T08:34:41;0.93;;;0.70;;
17953;SDS011;9102;53.548;9.926;2023-10-31T08:37:08;3.25;;;0.50;;
17953;SDS011;9102;53.548;9.926;2023-10-31T08:39:34;1.15;;;0.52;;
17953;SDS011;9102;53.548;9.926;2023-10-31T08:42:03;0.75;;;0.57;;
17953;SDS011;9102;53.548;9.926;2023-10-31T08:44:30;0.93;;;0.63;;
17953;SDS011;9102;53.548;9.926;2023-10-31T08:46:58;0.90;;;0.60;;
17953;SDS011;9102;53.548;9.926;2023-10-31T08:49:25;1.08;;;0.60;;
17953;SDS011;9102;53.548;9.926;2023-10-31T08:51:52;0.40;;;0.40;;
17953;SDS011;9102;53.548;9.926;2023-10-31T08:54:18;1.02;;;0.65;;
17953;SDS011;9102;53.548;9.926;2023-10-31T08:56:45;0.93;;;0.50;;
17953;SDS011;9102;53.548;9.926;2023-10-31T08:59:13;1.75;;;0.60;;
17953;SDS011;9102;53.548;9.926;2023-10-31T09:01:40;0.50;;;0.45;;
17953;SDS011;9102;53.548;9.926;2023-10-31T09:04:07;1.33;;;0.68;;
17953;SDS011;9102;53.548;9.926;2023-10-31T09:06:35;0.73;;;0.50;;
17953;SDS011;9102;53.548;9.926;2023-10-31T09:09:02;0.70;;;0.40;;
17953;SDS011;9102;53.548;9.926;2023-10-31T09:11:29;1.13;;;0.50;;
17953;SDS011;9102;53.548;9.926;2023-10-31T09:13:55;1.63;;;0.85;;
17953;SDS011;9102;53.548;9.926;2023-10-31T09:16:24;2.55;;;0.70;;
17953;SDS011;9102;53.548;9.926;2023-10-31T09:18:51;0.88;;;0.40;;
17953;SDS011;9102;53.548;9.926;2023-10-31T09:21:17;1.23;;;0.43;;
17953;SDS011;9102;53.548;9.926;2023-10-31T09:23:44;3.30;;;1.05;;
17953;SDS011;9102;53.548;9.926;2023-10-31T09:26:11;1.95;;;0.80;;
17953;SDS011;9102;53.548;9.926;2023-10-31T09:28:38;1.38;;;0.50;;
17953;SDS011;9102;53.548;9.926;2023-10-31T09:31:15;2.08;;;1.30;;
17953;SDS011;9102;53.548;9.926;2023-10-31T09:33:47;2.00;;;1.10;;
17953;SDS011;9102;53.548;9.926;2023-10-31T09:36:14;2.15;;;1.30;;
17953;SDS011;9102;53.548;9.926;2023-10-31T09:38:40;2.35;;;1.17;;
17953;SDS011;9102;53.548;9.926;2023-10-31T09:41:07;2.17;;;1.00;;
17953;SDS011;9102;53.548;9.926;2023-10-31T09:43:34;0.38;;;0.38;;
17953;SDS011;9102;53.548;9.926;2023-10-31T09:46:01;0.60;;;0.30;;
17953;SDS011;9102;53.548;9.926;2023-10-31T09:48:29;0.55;;;0.55;;
17953;SDS011;9102;53.548;9.926;2023-10-31T09:50:58;1.10;;;0.43;;
17953;SDS011;9102;53.548;9.926;2023-10-31T09:53:26;1.15;;;0.40;;
17953;SDS011;9102;53.548;9.926;2023-10-31T09:55:54;0.60;;;0.40;;
17953;SDS011;9102;53.548;9.926;2023-10-31T09:58:22;0.90;;;0.40;;
17953;SDS011;9102;53.548;9.926;2023-10-31T10:00:49;3.42;;;0.80;;
17953;SDS011;9102;53.548;9.926;2023-10-31T10:03:16;1.58;;;0.52;;
17953;SDS011;9102;53.548;9.926;2023-10-31T10:05:43;1.48;;;0.68;;
17953;SDS011;9102;53.548;9.926;2023-10-31T10:08:14;2.55;;;0.68;;
17953;SDS011;9102;53.548;9.926;2023-10-31T10:10:41;1.45;;;0.70;;
17953;SDS011;9102;53.548;9.926;2023-10-31T10:13:07;1.95;;;1.15;;
17953;SDS011;9102;53.548;9.926;2023-10-31T10:15:43;3.60;;;1.08;;
17953;SDS011;9102;53.548;9.926;2023-10-31T10:18:10;3.47;;;1.92;;
17953;SDS011;9102;53.548;9.926;2023-10-31T10:20:39;3.30;;;2.15;;
17953;SDS011;9102;53.548;9.926;2023-10-31T10:23:22;3.65;;;2.70;;
17953;SDS011;9102;53.548;9.926;2023-10-31T10:25:50;4.63;;;2.30;;
17953;SDS011;9102;53.548;9.926;2023-10-31T10:28:16;6.25;;;2.15;;
17953;SDS011;9102;53.548;9.926;2023-10-31T10:30:45;2.72;;;1.63;;
17953;SDS011;9102;53.548;9.926;2023-10-31T10:33:12;3.83;;;1.52;;
17953;SDS011;9102;53.548;9.926;2023-10-31T10:35:39;2.38;;;1.60;;
17953;SDS011;9102;53.548;9.926;2023-10-31T10:38:06;6.97;;;1.60;;
17953;SDS011;9102;53.548;9.926;2023-10-31T10:40:39;2.38;;;1.48;;
17953;SDS011;9102;53.548;9.926;2023-10-31T10:43:09;2.10;;;1.15;;
17953;SDS011;9102;53.548;9.926;2023-10-31T10:45:43;1.80;;;1.00;;
17953;SDS011;9102;53.548;9.926;2023-10-31T10:48:11;1.10;;;0.88;;
17953;SDS011;9102;53.548;9.926;2023-10-31T10:50:42;3.60;;;1.48;;
17953;SDS011;9102;53.548;9.926;2023-10-31T10:53:13;5.45;;;1.50;;
17953;SDS011;9102;53.548;9.926;2023-10-31T10:55:47;3.00;;;1.50;;
17953;SDS011;9102;53.548;9.926;2023-10-31T10:58:20;2.15;;;1.45;;
17953;SDS011;9102;53.548;9.926;2023-10-31T11:00:52;3.38;;;1.40;;
17953;SDS011;9102;53.548;9.926;2023-10-31T11:03:21;3.53;;;1.80;;
17953;SDS011;9102;53.548;9.926;2023-10-31T11:05:50;2.80;;;1.45;;
17953;SDS011;9102;53.548;9.926;2023-10-31T11:08:17;4.88;;;1.60;;
17953;SDS011;9102;53.548;9.926;2023-10-31T11:10:47;3.92;;;1.95;;
17953;SDS011;9102;53.548;9.926;2023-10-31T11:13:14;2.63;;;1.50;;
17953;SDS011;9102;53.548;9.926;2023-10-31T11:15:41;3.00;;;1.05;;
17953;SDS011;9102;53.548;9.926;2023-10-31T11:18:09;2.58;;;1.48;;
17953;SDS011;9102;53.548;9.926;2023-10-31T11:20:37;2.67;;;1.20;;
17953;SDS011;9102;53.548;9.926;2023-10-31T11:23:05;3.05;;;1.20;;
17953;SDS011;9102;53.548;9.926;2023-10-31T11:25:32;3.53;;;1.40;;
17953;SDS011;9102;53.548;9.926;2023-10-31T11:30:43;1.65;;;0.90;;
17953;SDS011;9102;53.548;9.926;2023-10-31T11:33:14;1.75;;;0.90;;
17953;SDS011;9102;53.548;9.926;2023-10-31T11:35:42;2.97;;;1.00;;
17953;SDS011;9102;53.548;9.926;2023-10-31T11:38:10;4.03;;;0.80;;
17953;SDS011;9102;53.548;9.926;2023-10-31T11:40:37;2.95;;;0.80;;
17953;SDS011;9102;53.548;9.926;2023-10-31T11:43:26;1.67;;;0.82;;
17953;SDS011;9102;53.548;9.926;2023-10-31T11:46:02;2.25;;;1.08;;
17953;SDS011;9102;53.548;9.926;2023-10-31T11:48:44;2.60;;;1.00;;
17953;SDS011;9102;53.548;9.926;2023-10-31T11:51:12;3.92;;;1.08;;
17953;SDS011;9102;53.548;9.926;2023-10-31T11:53:39;4.38;;;1.10;;
17953;SDS011;9102;53.548;9.926;2023-10-31T11:56:06;3.15;;;0.90;;
17953;SDS011;9102;53.548;9.926;2023-10-31T11:58:37;2.25;;;1.10;;
17953;SDS011;9102;53.548;9.926;2023-10-31T12:01:05;4.85;;;1.30;;
17953;SDS011;9102;53.548;9.926;2023-10-31T12:03:36;1.00;;;0.60;;
17953;SDS011;9102;53.548;9.926;2023-10-31T12:06:03;2.17;;;0.82;;
17953;SDS011;9102;53.548;9.926;2023-10-31T12:08:31;1.58;;;0.60;;
17953;SDS011;9102;53.548;9.926;2023-10-31T12:11:06;1.85;;;0.88;;
17953;SDS011;9102;53.548;9.926;2023-10-31T12:13:34;2.35;;;0.65;;
17953;SDS011;9102;53.548;9.926;2023-10-31T12:16:04;4.32;;;0.80;;
17953;SDS011;9102;53.548;9.926;2023-10-31T12:18:33;2.70;;;0.80;;
17953;SDS011;9102;53.548;9.926;2023-10-31T12:21:00;3.42;;;0.90;;
17953;SDS011;9102;53.548;9.926;2023-10-31T12:23:27;1.98;;;0.80;;
17953;SDS011;9102;53.548;9.926;2023-10-31T12:25:54;2.33;;;1.08;;
17953;SDS011;9102;53.548;9.926;2023-10-31T12:28:22;1.38;;;0.68;;
17953;SDS011;9102;53.548;9.926;2023-10-31T12:30:50;1.58;;;0.60;;
17953;SDS011;9102;53.548;9.926;2023-10-31T12:33:21;2.20;;;0.65;;
17953;SDS011;9102;53.548;9.926;2023-10-31T12:35:50;1.00;;;0.32;;
17953;SDS011;9102;53.548;9.926;2023-10-31T12:38:18;1.92;;;0.88;;
17953;SDS011;9102;53.548;9.926;2023-10-31T12:40:45;1.17;;;0.50;;
17953;SDS011;9102;53.548;9.926;2023-10-31T12:43:12;1.13;;;0.60;;
17953;SDS011;9102;53.548;9.926;2023-10-31T12:45:39;1.52;;;0.47;;
17953;SDS011;9102;53.548;9.926;2023-10-31T12:48:07;2.60;;;0.75;;
17953;SDS011;9102;53.548;9.926;2023-10-31T12:50:37;2.55;;;0.40;;
17953;SDS011;9102;53.548;9.926;2023-10-31T12:53:05;3.28;;;0.77;;
17953;SDS011;9102;53.548;9.926;2023-10-31T12:55:37;1.63;;;0.55;;
17953;SDS011;9102;53.548;9.926;2023-10-31T12:58:05;1.85;;;0.65;;
17953;SDS011;9102;53.548;9.926;2023-10-31T13:00:32;2.42;;;0.70;;
17953;SDS011;9102;53.548;9.926;2023-10-31T13:03:00;2.35;;;0.85;;
17953;SDS011;9102;53.548;9.926;2023-10-31T13:05:28;0.82;;;0.50;;
17953;SDS011;9102;53.548;9.926;2023-10-31T13:07:57;1.67;;;0.65;;
17953;SDS011;9102;53.548;9.926;2023-10-31T13:10:25;3.10;;;0.63;;
17953;SDS011;9102;53.548;9.926;2023-10-31T13:12:53;3.95;;;0.77;;
17953;SDS011;9102;53.548;9.926;2023-10-31T13:15:21;2.90;;;0.77;;
17953;SDS011;9102;53.548;9.926;2023-10-31T13:17:49;3.72;;;0.60;;
17953;SDS011;9102;53.548;9.926;2023-10-31T13:20:16;3.42;;;0.70;;
17953;SDS011;9102;53.548;9.926;2023-10-31T13:22:46;2.22;;;0.50;;
17953;SDS011;9102;53.548;9.926;2023-10-31T13:25:15;1.38;;;0.73;;
17953;SDS011;9102;53.548;9.926;2023-10-31T13:27:43;4.88;;;0.55;;
17953;SDS011;9102;53.548;9.926;2023-10-31T13:30:15;1.48;;;0.60;;
17953;SDS011;9102;53.548;9.926;2023-10-31T13:32:43;3.42;;;0.90;;
17953;SDS011;9102;53.548;9.926;2023-10-31T13:35:10;3.35;;;1.27;;
17953;SDS011;9102;53.548;9.926;2023-10-31T13:37:39;3.92;;;0.80;;
17953;SDS011;9102;53.548;9.926;2023-10-31T13:40:06;4.78;;;1.08;;
17953;SDS011;9102;53.548;9.926;2023-10-31T13:42:35;3.70;;;1.23;;
17953;SDS011;9102;53.548;9.926;2023-10-31T13:45:02;3.42;;;1.60;;
17953;SDS011;9102;53.548;9.926;2023-10-31T13:47:29;4.68;;;2.13;;
17953;SDS011;9102;53.548;9.926;2023-10-31T13:49:56;2.88;;;1.95;;
17953;SDS011;9102;53.548;9.926;2023-10-31T13:52:23;6.22;;;2.17;;
17953;SDS011;9102;53.548;9.926;2023-10-31T13:54:49;3.58;;;2.25;;
17953;SDS011;9102;53.548;9.926;2023-10-31T13:57:16;5.05;;;2.00;;
17953;SDS011;9102;53.548;9.926;2023-10-31T13:59:44;5.68;;;1.80;;
17953;SDS011;9102;53.548;9.926;2023-10-31T14:02:11;1.95;;;1.30;;
17953;SDS011;9102;53.548;9.926;2023-10-31T14:04:38;4.22;;;1.42;;
17953;SDS011;9102;53.548;9.926;2023-10-31T14:07:05;2.85;;;1.33;;
17953;SDS011;9102;53.548;9.926;2023-10-31T14:09:32;3.85;;;1.13;;
17953;SDS011;9102;53.548;9.926;2023-10-31T14:11:59;2.10;;;1.00;;
17953;SDS011;9102;53.548;9.926;2023-10-31T14:14:26;1.92;;;1.10;;
17953;SDS011;9102;53.548;9.926;2023-10-31T14:16:54;2.75;;;0.82;;
17953;SDS011;9102;53.548;9.926;2023-10-31T14:19:21;0.85;;;0.77;;
17953;SDS011;9102;53.548;9.926;2023-10-31T14:21:48;3.42;;;0.95;;
17953;SDS011;9102;53.548;9.926;2023-10-31T14:24:14;2.42;;;0.80;;
17953;SDS011;9102;53.548;9.926;2023-10-31T14:26:41;2.70;;;0.50;;
17953;SDS011;9102;53.548;9.926;2023-10-31T14:29:08;1.98;;;0.60;;
17953;SDS011;9102;53.548;9.926;2023-10-31T14:31:39;1.58;;;0.57;;
17953;SDS011;9102;53.548;9.926;2023-10-31T14:34:08;1.15;;;0.85;;
17953;SDS011;9102;53.548;9.926;2023-10-31T14:36:35;1.08;;;0.50;;
17953;SDS011;9102;53.548;9.926;2023-10-31T14:39:02;0.93;;;0.68;;
17953;SDS011;9102;53.548;9.926;2023-10-31T14:41:30;2.63;;;0.65;;
17953;SDS011;9102;53.548;9.926;2023-10-31T14:43:58;2.45;;;0.90;;
17953;SDS011;9102;53.548;9.926;2023-10-31T14:46:25;3.90;;;0.80;;
17953;SDS011;9102;53.548;9.926;2023-10-31T14:48:53;2.88;;;0.90;;
17953;SDS011;9102;53.548;9.926;2023-10-31T14:51:21;2.28;;;0.90;;
17953;SDS011;9102;53.548;9.926;2023-10-31T14:53:47;2.65;;;1.20;;